createdAt,value
2022-08-18T00:01:15.829Z,74.27
2022-08-18T00:03:55.903Z,74.66
2022-08-18T00:06:59.903Z,74.32
2022-08-18T00:09:31.541Z,74.46
2022-08-18T00:12:00.706Z,74.38
2022-08-18T00:14:27.099Z,74.93
2022-08-18T00:16:54.578Z,75.22
2022-08-18T00:19:45.616Z,75.76
2022-08-18T00:22:14.625Z,75.09
2022-08-18T00:24:47.867Z,76.00
2022-08-18T00:27:17.104Z,76.66
2022-08-18T00:29:43.437Z,76.17
2022-08-18T00:32:19.488Z,77.29
2022-08-18T00:34:45.914Z,77.64
2022-08-18T00:37:12.313Z,77.14
2022-08-18T00:39:40.651Z,78.14
2022-08-18T00:42:29.030Z,77.32
2022-08-18T00:45:01.018Z,77.80
2022-08-18T00:47:42.078Z,77.37
2022-08-18T00:50:16.249Z,77.66
2022-08-18T00:52:49.703Z,77.82
2022-08-18T00:55:17.927Z,77.53
2022-08-18T00:57:44.473Z,77.52
2022-08-18T01:00:13.063Z,77.68
2022-08-18T01:02:44.494Z,78.01
2022-08-18T01:05:18.873Z,78.17
2022-08-18T01:07:47.788Z,79.17
2022-08-18T01:10:17.623Z,79.52
2022-08-18T01:12:47.064Z,79.63
2022-08-18T01:15:28.685Z,79.67
2022-08-18T01:18:23.052Z,79.31
2022-08-18T01:21:27.596Z,79.85
2022-08-18T01:23:55.865Z,80.38
2022-08-18T01:26:25.832Z,81.14
2022-08-18T01:28:53.886Z,80.72
2022-08-18T01:31:34.241Z,78.75
2022-08-18T01:34:01.123Z,78.42
2022-08-18T01:36:29.413Z,76.89
2022-08-18T01:38:56.745Z,77.28
2022-08-18T01:41:30.432Z,78.19
2022-08-18T01:43:59.267Z,78.40
2022-08-18T01:46:27.395Z,79.13
2022-08-18T01:48:53.848Z,80.04
2022-08-18T01:51:21.664Z,80.04
2022-08-18T01:54:06.158Z,79.56
2022-08-18T01:56:32.571Z,80.54
2022-08-18T01:58:58.951Z,80.75
2022-08-18T02:01:36.228Z,81.38
2022-08-18T02:04:33.277Z,81.80
2022-08-18T02:06:53.393Z,81.90
2022-08-18T02:09:23.727Z,82.08
2022-08-18T02:11:51.397Z,82.25
2022-08-18T02:14:25.063Z,81.93
2022-08-18T02:16:57.037Z,81.77
2022-08-18T02:19:33.197Z,81.28
2022-08-18T02:21:59.885Z,80.93
2022-08-18T02:24:26.266Z,81.04
2022-08-18T02:26:52.625Z,80.26
2022-08-18T02:29:18.951Z,80.39
2022-08-18T02:31:45.391Z,79.97
2022-08-18T02:34:11.750Z,80.26
2022-08-18T02:36:38.135Z,79.55
2022-08-18T02:39:04.551Z,79.91
2022-08-18T02:41:31.473Z,79.96
2022-08-18T02:43:58.377Z,80.68
2022-08-18T02:46:29.945Z,80.80
2022-08-18T02:48:57.850Z,80.93
2022-08-18T02:51:25.742Z,81.34
2022-08-18T02:53:53.442Z,81.51
2022-08-18T02:56:41.347Z,81.64
2022-08-18T02:59:20.954Z,82.07
2022-08-18T03:01:51.303Z,82.53
2022-08-18T03:04:26.622Z,82.93
2022-08-18T03:06:56.696Z,83.59
2022-08-18T03:09:24.200Z,83.42
2022-08-18T03:11:50.638Z,83.94
2022-08-18T03:14:17.039Z,85.38
2022-08-18T03:16:53.587Z,84.78
2022-08-18T03:19:25.987Z,85.12
2022-08-18T03:21:53.208Z,84.07
2022-08-18T03:24:22.934Z,84.27
2022-08-18T03:26:51.062Z,84.16
2022-08-18T03:29:17.515Z,84.83
2022-08-18T03:31:45.330Z,85.30
2022-08-18T03:34:12.884Z,84.80
2022-08-18T03:36:39.683Z,84.21
2022-08-18T03:39:10.791Z,85.34
2022-08-18T03:41:43.815Z,85.39
2022-08-18T03:44:26.619Z,85.66
2022-08-18T03:46:53.040Z,86.21
2022-08-18T03:49:20.866Z,87.59
2022-08-18T03:51:48.503Z,87.15
2022-08-18T03:54:17.444Z,85.62
2022-08-18T03:56:46.014Z,85.33
2022-08-18T03:59:17.739Z,86.14
2022-08-18T04:01:45.887Z,86.14
2022-08-18T04:04:15.854Z,86.48
2022-08-18T04:06:45.387Z,87.37
2022-08-18T04:09:14.838Z,87.72
2022-08-18T04:11:43.502Z,87.83
2022-08-18T04:14:13.227Z,87.49
2022-08-18T04:16:40.501Z,87.42
2022-08-18T04:19:08.775Z,87.27
2022-08-18T04:21:37.959Z,87.15
2022-08-18T04:24:05.418Z,88.62
2022-08-18T04:26:34.636Z,88.50
2022-08-18T04:29:01.622Z,88.85
2022-08-18T04:31:29.984Z,88.26
2022-08-18T04:33:58.603Z,88.40
2022-08-18T04:36:26.210Z,87.89
2022-08-18T04:38:52.952Z,88.56
2022-08-18T04:41:27.217Z,89.25
2022-08-18T04:43:55.570Z,90.21
2022-08-18T04:46:24.155Z,90.68
2022-08-18T04:48:50.759Z,90.90
2022-08-18T04:52:37.357Z,90.21
2022-08-18T04:54:07.199Z,90.54
2022-08-18T04:56:37.824Z,89.90
2022-08-18T04:59:09.880Z,90.58
2022-08-18T05:01:42.264Z,90.50
2022-08-18T05:04:09.902Z,90.90
2022-08-18T05:06:37.333Z,89.97
2022-08-18T05:09:07.244Z,90.56
2022-08-18T05:11:35.325Z,90.73
2022-08-18T05:14:04.749Z,90.94
2022-08-18T05:16:36.449Z,90.32
2022-08-18T05:19:15.991Z,90.70
2022-08-18T05:21:45.609Z,90.94
2022-08-18T05:24:17.605Z,91.78
2022-08-18T05:26:44.445Z,91.41
2022-08-18T05:29:18.572Z,91.51
2022-08-18T05:31:47.576Z,91.80
2022-08-18T05:34:14.041Z,92.09
2022-08-18T05:36:49.339Z,91.99
2022-08-18T05:39:23.844Z,92.08
2022-08-18T05:41:55.540Z,93.94
2022-08-18T05:44:28.791Z,94.31
2022-08-18T05:47:07.428Z,95.27
2022-08-18T05:49:35.817Z,97.81
2022-08-18T05:52:37.280Z,98.14
2022-08-18T05:55:45.940Z,99.58
2022-08-18T05:58:21.952Z,100.00
2022-08-18T06:00:59.608Z,100.00
2022-08-18T06:03:46.468Z,99.59
2022-08-18T06:06:26.255Z,100.00
2022-08-18T06:08:57.075Z,100.00
2022-08-18T06:11:24.125Z,100.00
2022-08-18T06:13:51.704Z,100.00
2022-08-18T06:16:33.784Z,100.00
2022-08-18T06:19:14.992Z,100.00
2022-08-18T06:22:08.422Z,100.00
2022-08-18T06:24:59.420Z,100.00
2022-08-18T06:27:55.765Z,100.00
2022-08-18T06:30:40.840Z,100.00
2022-08-18T06:33:22.239Z,100.00
2022-08-18T06:35:52.053Z,100.00
2022-08-18T06:38:39.929Z,100.00
2022-08-18T06:41:09.392Z,100.00
2022-08-18T06:44:03.177Z,100.00
2022-08-18T06:46:44.505Z,100.00
2022-08-18T06:49:19.251Z,100.00
2022-08-18T06:51:45.809Z,100.00
2022-08-18T06:54:21.260Z,100.00
2022-08-18T06:56:50.920Z,100.00
2022-08-18T06:59:28.144Z,100.00
2022-08-18T07:02:01.443Z,100.00
2022-08-18T07:04:44.329Z,100.00
2022-08-18T07:07:40.147Z,100.00
2022-08-18T07:10:30.347Z,100.00
2022-08-18T07:13:08.492Z,100.00
2022-08-18T07:15:35.676Z,100.00
2022-08-18T07:18:09.801Z,100.00
2022-08-18T07:20:49.223Z,100.00
2022-08-18T07:23:34.642Z,100.00
2022-08-18T07:26:21.233Z,100.00
2022-08-18T07:28:49.370Z,100.00
2022-08-18T07:31:24.849Z,100.00
2022-08-18T07:33:58.823Z,100.00
2022-08-18T07:36:29.142Z,100.00
2022-08-18T07:39:03.567Z,100.00
2022-08-18T07:41:48.111Z,100.00
2022-08-18T07:44:34.754Z,100.00
2022-08-18T07:47:15.860Z,100.00
2022-08-18T07:50:13.593Z,100.00
2022-08-18T07:52:52.379Z,100.00
2022-08-18T07:55:31.852Z,100.00
2022-08-18T07:58:15.716Z,100.00
2022-08-18T08:00:59.895Z,100.00
2022-08-18T08:03:44.436Z,100.00
2022-08-18T08:06:23.713Z,100.00
2022-08-18T08:08:54.907Z,100.00
2022-08-18T08:11:58.496Z,100.00
2022-08-18T08:14:46.593Z,100.00
2022-08-18T08:17:24.879Z,100.00
2022-08-18T08:20:18.515Z,100.00
2022-08-18T08:22:56.922Z,100.00
2022-08-18T08:25:46.357Z,100.00
2022-08-18T08:28:45.961Z,100.00
2022-08-18T08:31:36.323Z,100.00
2022-08-18T08:34:17.338Z,100.00
2022-08-18T08:36:46.912Z,100.00
2022-08-18T08:39:20.482Z,100.00
2022-08-18T08:42:29.152Z,100.00
2022-08-18T08:45:00.183Z,100.00
2022-08-18T08:47:41.272Z,100.00
2022-08-18T08:50:16.688Z,100.00
2022-08-18T08:52:58.852Z,100.00
2022-08-18T08:55:29.938Z,100.00
2022-08-18T08:58:08.513Z,100.00
2022-08-18T09:00:36.739Z,99.59
2022-08-18T09:03:30.400Z,100.00
2022-08-18T09:05:59.891Z,99.21
2022-08-18T09:08:58.624Z,100.00
2022-08-18T09:11:43.606Z,97.25
2022-08-18T09:14:24.037Z,93.54
2022-08-18T09:17:24.676Z,95.38
2022-08-18T09:20:23.272Z,94.47
2022-08-18T09:23:08.793Z,92.96
2022-08-18T09:25:38.038Z,94.32
2022-08-18T09:28:17.972Z,91.28
2022-08-18T09:34:14.396Z,91.75
2022-08-18T09:37:17.390Z,92.17
2022-08-18T09:40:13.980Z,91.44
2022-08-18T09:42:50.639Z,88.36
2022-08-18T09:45:41.188Z,88.96
2022-08-18T09:51:15.653Z,88.74
2022-08-18T09:53:46.816Z,90.93
2022-08-18T09:56:15.251Z,91.40
2022-08-18T09:59:12.997Z,87.85
2022-08-18T10:01:41.202Z,88.42
2022-08-18T10:04:13.758Z,89.69
2022-08-18T10:06:48.339Z,87.25
2022-08-18T10:09:44.948Z,88.07
2022-08-18T10:12:27.506Z,87.24
2022-08-18T10:15:33.164Z,90.49
2022-08-18T10:18:16.328Z,88.64
2022-08-18T10:20:57.593Z,91.89
2022-08-18T10:23:58.453Z,91.56
2022-08-18T10:26:55.394Z,90.34
2022-08-18T10:29:25.853Z,88.67
2022-08-18T10:31:55.236Z,89.17
2022-08-18T10:34:52.463Z,91.70
2022-08-18T10:37:26.369Z,91.81
2022-08-18T10:39:59.659Z,91.67
2022-08-18T10:42:33.660Z,92.39
2022-08-18T10:45:11.754Z,91.98
2022-08-18T10:47:38.234Z,91.78
2022-08-18T10:50:09.669Z,93.43
2022-08-18T10:53:39.727Z,91.55
2022-08-18T10:56:16.712Z,92.00
2022-08-18T10:59:08.194Z,90.24
2022-08-18T11:02:09.544Z,88.14
2022-08-18T11:04:44.069Z,88.37
2022-08-18T11:07:18.170Z,90.02
2022-08-18T11:09:57.114Z,89.76
2022-08-18T11:12:55.857Z,88.73
2022-08-18T11:15:38.290Z,85.10
2022-08-18T11:18:30.830Z,87.42
2022-08-18T11:21:31.899Z,85.09
2022-08-18T11:24:10.005Z,85.48
2022-08-18T11:29:40.745Z,82.40
2022-08-18T11:32:17.833Z,78.24
2022-08-18T11:34:53.177Z,78.65
2022-08-18T11:37:53.342Z,80.29
2022-08-18T11:41:02.186Z,78.32
2022-08-18T11:43:09.845Z,77.13
2022-08-18T11:45:53.906Z,75.50
2022-08-18T11:48:36.209Z,73.85
2022-08-18T11:51:25.369Z,73.57
2022-08-18T11:54:00.071Z,72.84
2022-08-18T11:56:35.936Z,72.33
2022-08-18T11:59:52.539Z,72.55
2022-08-18T12:02:20.792Z,70.31
2022-08-18T12:04:52.921Z,70.61
2022-08-18T12:07:31.896Z,68.27
2022-08-18T12:10:19.340Z,68.18
2022-08-18T12:12:53.547Z,68.32
2022-08-18T12:15:23.815Z,67.63
2022-08-18T12:20:37.903Z,66.41
2022-08-18T12:23:05.285Z,61.97
2022-08-18T12:25:32.233Z,63.66
2022-08-18T12:27:58.606Z,63.20
2022-08-18T12:30:24.994Z,64.34
2022-08-18T12:35:41.827Z,61.51
2022-08-18T12:38:13.898Z,59.74
2022-08-18T12:40:41.754Z,58.61
2022-08-18T12:43:08.953Z,58.66
2022-08-18T12:45:37.884Z,58.20
2022-08-18T12:48:05.105Z,57.50
2022-08-18T12:50:41.113Z,58.56
2022-08-18T12:53:17.001Z,58.49
2022-08-18T12:58:31.131Z,57.33
2022-08-18T13:01:03.934Z,56.24
2022-08-18T13:03:30.452Z,56.70
2022-08-18T13:06:02.273Z,56.37
2022-08-18T13:08:33.714Z,55.96
2022-08-18T13:11:21.329Z,54.02
2022-08-18T13:13:53.093Z,53.01
2022-08-18T13:16:30.822Z,54.37
2022-08-18T13:19:06.250Z,53.52
2022-08-18T13:21:41.094Z,53.19
2022-08-18T13:24:09.344Z,54.36
2022-08-18T13:26:41.566Z,54.31
2022-08-18T13:29:10.099Z,54.16
2022-08-18T13:31:38.021Z,50.03
2022-08-18T13:34:11.632Z,50.22
2022-08-18T13:36:46.105Z,50.04
2022-08-18T13:39:16.978Z,51.90
2022-08-18T13:41:45.514Z,48.86
2022-08-18T13:44:15.059Z,48.42
2022-08-18T13:46:46.676Z,47.85
2022-08-18T13:49:23.448Z,48.56
2022-08-18T13:51:52.091Z,47.82
2022-08-18T13:54:31.249Z,48.49
2022-08-18T13:56:58.617Z,49.62
2022-08-18T13:59:26.759Z,48.78
2022-08-18T14:01:53.455Z,46.96
2022-08-18T14:04:22.842Z,46.39
2022-08-18T14:06:56.933Z,44.73
2022-08-18T14:09:36.284Z,44.04
2022-08-18T14:12:28.207Z,42.93
2022-08-18T14:14:57.614Z,42.43
2022-08-18T14:17:25.858Z,43.47
2022-08-18T14:20:14.882Z,42.99
2022-08-18T14:23:00.813Z,43.88
2022-08-18T14:25:45.984Z,45.20
2022-08-18T14:28:12.628Z,45.19
2022-08-18T14:30:39.825Z,45.43
2022-08-18T14:33:11.583Z,46.49
2022-08-18T14:36:06.622Z,46.90
2022-08-18T14:38:24.840Z,46.77
2022-08-18T14:40:51.691Z,47.56
2022-08-18T14:43:24.864Z,46.14
2022-08-18T14:45:53.572Z,45.05
2022-08-18T14:48:27.288Z,47.34
2022-08-18T14:50:56.084Z,47.50
2022-08-18T14:53:26.443Z,45.65
2022-08-18T14:55:54.606Z,46.18
2022-08-18T14:58:27.687Z,44.79
2022-08-18T15:00:56.770Z,46.48
2022-08-18T15:03:28.388Z,46.70
2022-08-18T15:06:00.353Z,46.51
2022-08-18T15:08:27.317Z,46.92
2022-08-18T15:10:55.875Z,46.30
2022-08-18T15:13:26.358Z,45.65
2022-08-18T15:15:53.551Z,44.13
2022-08-18T15:18:22.545Z,44.45
2022-08-18T15:21:19.354Z,44.44
2022-08-18T15:24:05.034Z,45.65
2022-08-18T15:26:43.811Z,47.07
2022-08-18T15:29:11.404Z,46.03
2022-08-18T15:32:01.960Z,44.07
2022-08-18T15:34:28.644Z,44.42
2022-08-18T15:36:56.864Z,44.62
2022-08-18T15:39:24.345Z,45.50
2022-08-18T15:44:19.819Z,47.13
2022-08-18T15:46:51.245Z,47.38
2022-08-18T15:49:21.751Z,46.00
2022-08-18T15:51:49.418Z,45.87
2022-08-18T15:54:16.263Z,46.88
2022-08-18T15:56:46.296Z,46.39
2022-08-18T15:59:33.022Z,47.84
2022-08-18T16:02:05.463Z,48.67
2022-08-18T16:04:31.865Z,48.43
2022-08-18T16:06:58.216Z,48.39
2022-08-18T16:09:24.563Z,48.70
2022-08-18T16:11:50.927Z,48.29
2022-08-18T16:14:17.251Z,47.78
2022-08-18T16:16:43.626Z,47.76
2022-08-18T16:19:09.972Z,47.38
2022-08-18T16:21:39.762Z,48.49
2022-08-18T16:24:07.138Z,50.18
2022-08-18T16:26:33.488Z,50.69
2022-08-18T16:29:01.789Z,50.90
2022-08-18T16:31:29.295Z,51.94
2022-08-18T16:33:57.651Z,51.77
2022-08-18T16:36:27.775Z,50.43
2022-08-18T16:38:56.159Z,49.64
2022-08-18T16:41:25.881Z,49.86
2022-08-18T16:43:52.298Z,50.42
2022-08-18T16:46:26.875Z,50.34
2022-08-18T16:48:55.227Z,50.26
2022-08-18T16:51:24.393Z,51.04
2022-08-18T16:53:52.899Z,51.38
2022-08-18T16:56:23.564Z,49.77
2022-08-18T16:59:09.122Z,51.15
2022-08-18T17:01:54.276Z,51.35
2022-08-18T17:04:24.911Z,51.05
2022-08-18T17:06:51.506Z,50.66
2022-08-18T17:09:19.198Z,51.65
2022-08-18T17:11:51.726Z,52.49
2022-08-18T17:14:20.794Z,52.09
2022-08-18T17:16:48.686Z,52.33
2022-08-18T17:19:15.211Z,52.42
2022-08-18T17:21:41.725Z,52.85
2022-08-18T17:24:11.439Z,53.39
2022-08-18T17:26:44.420Z,54.27
2022-08-18T17:29:18.860Z,53.89
2022-08-18T17:31:52.686Z,54.24
2022-08-18T17:34:22.739Z,54.91
2022-08-18T17:36:54.979Z,55.28
2022-08-18T17:39:27.565Z,55.50
2022-08-18T17:42:12.676Z,56.10
2022-08-18T17:44:52.456Z,56.18
2022-08-18T17:47:27.000Z,56.41
2022-08-18T17:50:27.253Z,57.42
2022-08-18T17:53:01.392Z,58.06
2022-08-18T17:55:39.293Z,57.61
2022-08-18T17:58:16.255Z,57.39
2022-08-18T18:00:42.617Z,57.87
2022-08-18T18:03:12.718Z,57.92
2022-08-18T18:05:43.430Z,58.11
2022-08-18T18:08:10.582Z,58.16
2022-08-18T18:11:03.982Z,57.91
2022-08-18T18:13:32.582Z,58.14
2022-08-18T18:16:23.239Z,59.06
2022-08-18T18:19:00.026Z,58.35
2022-08-18T18:22:00.556Z,58.64
2022-08-18T18:24:15.540Z,58.03
2022-08-18T18:26:45.848Z,57.93
2022-08-18T18:29:37.708Z,57.98
2022-08-18T18:32:38.308Z,58.06
2022-08-18T18:35:27.093Z,58.46
2022-08-18T18:38:01.581Z,58.45
2022-08-18T18:40:53.207Z,58.29
2022-08-18T18:43:21.864Z,58.03
2022-08-18T18:46:27.250Z,58.03
2022-08-18T18:48:53.782Z,57.92
2022-08-18T18:51:41.702Z,57.71
2022-08-18T18:54:49.574Z,57.69
2022-08-18T18:57:55.307Z,57.94
2022-08-18T19:00:59.009Z,58.25
2022-08-18T19:03:52.961Z,58.40
2022-08-18T19:06:29.231Z,58.28
2022-08-18T19:09:08.390Z,58.68
2022-08-18T19:11:40.962Z,59.01
2022-08-18T19:14:17.468Z,58.82
2022-08-18T19:17:07.517Z,59.19
2022-08-18T19:19:44.502Z,59.56
2022-08-18T19:22:19.659Z,59.31
2022-08-18T19:24:58.024Z,59.97
2022-08-18T19:27:31.863Z,59.98
2022-08-18T19:30:03.170Z,60.12
2022-08-18T19:32:37.614Z,60.32
2022-08-18T19:35:12.143Z,61.11
2022-08-18T19:37:49.532Z,61.78
2022-08-18T19:40:24.143Z,61.36
2022-08-18T19:42:58.645Z,60.47
2022-08-18T19:45:36.270Z,61.10
2022-08-18T19:48:13.092Z,62.97
2022-08-18T19:51:08.243Z,64.95
2022-08-18T19:54:04.347Z,66.27
2022-08-18T19:56:56.155Z,67.11
2022-08-18T19:59:50.959Z,67.44
2022-08-18T20:02:20.750Z,67.52
2022-08-18T20:05:08.964Z,68.09
2022-08-18T20:07:49.012Z,68.06
2022-08-18T20:10:33.910Z,68.25
2022-08-18T20:13:32.480Z,68.65
2022-08-18T20:16:01.791Z,68.34
2022-08-18T20:18:35.424Z,68.96
2022-08-18T20:21:13.829Z,69.30
2022-08-18T20:24:05.847Z,69.21
2022-08-18T20:26:35.086Z,69.59
2022-08-18T20:29:02.158Z,69.48
2022-08-18T20:31:50.437Z,69.12
2022-08-18T20:34:20.816Z,69.16
2022-08-18T20:36:48.401Z,68.57
2022-08-18T20:39:41.910Z,68.80
2022-08-18T20:42:20.456Z,69.47
2022-08-18T20:44:49.981Z,69.75
2022-08-18T20:47:25.646Z,70.94
2022-08-18T20:50:22.482Z,71.48
2022-08-18T20:52:58.164Z,71.32
2022-08-18T20:55:30.803Z,71.28
2022-08-18T20:58:05.185Z,71.87
2022-08-18T21:00:36.437Z,71.08
2022-08-18T21:03:10.691Z,71.48
2022-08-18T21:05:39.883Z,71.23
2022-08-18T21:08:19.546Z,71.34
2022-08-18T21:10:51.095Z,70.91
2022-08-18T21:13:40.483Z,70.68
2022-08-18T21:16:38.819Z,70.41
2022-08-18T21:19:40.013Z,70.59
2022-08-18T21:22:06.421Z,70.46
2022-08-18T21:24:35.749Z,70.38
2022-08-18T21:27:26.251Z,70.56
2022-08-18T21:29:56.461Z,71.06
2022-08-18T21:32:36.477Z,70.65
2022-08-18T21:35:18.816Z,70.80
2022-08-18T21:38:09.318Z,70.75
2022-08-18T21:40:43.355Z,70.97
2022-08-18T21:43:12.091Z,71.67
2022-08-18T21:45:47.793Z,71.98
2022-08-18T21:48:15.009Z,71.73
2022-08-18T21:50:50.245Z,71.48
2022-08-18T21:53:22.118Z,72.06
2022-08-18T21:55:51.675Z,71.78
2022-08-18T21:58:33.966Z,71.86
2022-08-18T22:01:14.698Z,72.06
2022-08-18T22:04:16.504Z,72.25
2022-08-18T22:06:48.491Z,72.32
2022-08-18T22:09:38.496Z,72.16
2022-08-18T22:12:47.295Z,71.73
2022-08-18T22:15:25.603Z,71.93
2022-08-18T22:18:27.206Z,72.03
2022-08-18T22:20:58.724Z,71.65
2022-08-18T22:23:57.519Z,71.45
2022-08-18T22:26:32.622Z,71.27
2022-08-18T22:29:17.742Z,71.18
2022-08-18T22:31:47.063Z,71.31
2022-08-18T22:34:17.349Z,70.73
2022-08-18T22:36:53.680Z,71.39
2022-08-18T22:39:37.456Z,71.53
2022-08-18T22:42:04.840Z,72.10
2022-08-18T22:44:31.274Z,72.71
2022-08-18T22:46:58.200Z,73.87
2022-08-18T22:49:25.154Z,74.98
2022-08-18T22:51:54.190Z,75.30
2022-08-18T22:54:23.012Z,75.59
2022-08-18T22:56:53.925Z,75.84
2022-08-18T22:59:23.189Z,75.84
2022-08-18T23:01:51.052Z,77.16
2022-08-18T23:04:20.327Z,75.62
2022-08-18T23:06:51.870Z,74.54
2022-08-18T23:09:28.239Z,74.66
2022-08-18T23:12:00.637Z,73.81
2022-08-18T23:14:28.147Z,73.94
2022-08-18T23:16:54.503Z,73.89
2022-08-18T23:19:21.441Z,73.94
2022-08-18T23:21:48.578Z,74.75
2022-08-18T23:24:21.465Z,73.27
2022-08-18T23:26:49.226Z,73.21
2022-08-18T23:29:15.934Z,73.00
2022-08-18T23:31:44.997Z,72.98
2022-08-18T23:34:14.687Z,73.39
2022-08-18T23:36:45.380Z,74.30
2022-08-18T23:39:13.519Z,75.20
2022-08-18T23:41:39.990Z,74.06
2022-08-18T23:44:06.619Z,74.58
2022-08-18T23:46:33.516Z,74.74
2022-08-18T23:49:02.313Z,74.64
2022-08-18T23:51:38.472Z,74.64
2022-08-18T23:54:11.988Z,74.94
2022-08-18T23:56:38.494Z,75.11
2022-08-18T23:59:07.023Z,74.42
